createdAt,value
2018-11-12T00:01:26.907Z,15.80
2018-11-12T00:03:56.251Z,15.80
2018-11-12T00:06:25.537Z,15.80
2018-11-12T00:08:54.828Z,15.80
2018-11-12T00:11:24.140Z,15.80
2018-11-12T00:13:53.412Z,15.80
2018-11-12T00:16:22.695Z,15.80
2018-11-12T00:18:51.951Z,15.80
2018-11-12T00:21:21.240Z,15.80
2018-11-12T00:23:50.518Z,15.80
2018-11-12T00:26:19.781Z,15.80
2018-11-12T00:28:49.031Z,15.80
2018-11-12T00:31:18.429Z,15.80
2018-11-12T00:33:47.689Z,15.80
2018-11-12T00:36:17.004Z,15.80
2018-11-12T00:38:46.349Z,15.80
2018-11-12T00:41:15.610Z,15.80
2018-11-12T00:43:44.862Z,15.80
2018-11-12T00:46:14.171Z,15.80
2018-11-12T00:48:43.504Z,15.80
2018-11-12T00:51:12.773Z,15.80
2018-11-12T00:53:42.367Z,15.80
2018-11-12T00:56:11.694Z,15.80
2018-11-12T00:58:40.967Z,15.80
2018-11-12T01:01:10.238Z,15.80
2018-11-12T01:03:39.848Z,15.80
2018-11-12T01:06:09.148Z,15.80
2018-11-12T01:08:38.403Z,15.80
2018-11-12T01:11:07.721Z,15.80
2018-11-12T01:13:36.989Z,15.80
2018-11-12T01:16:06.631Z,15.80
2018-11-12T01:18:35.914Z,15.80
2018-11-12T01:21:05.299Z,15.80
2018-11-12T01:23:34.556Z,15.80
2018-11-12T01:26:03.947Z,15.80
2018-11-12T01:28:33.227Z,15.70
2018-11-12T01:31:05.298Z,15.70
2018-11-12T01:33:36.088Z,15.80
2018-11-12T01:36:05.791Z,15.70
2018-11-12T01:38:35.039Z,15.70
2018-11-12T01:41:04.298Z,15.70
2018-11-12T01:43:33.604Z,15.80
2018-11-12T01:46:02.888Z,15.70
2018-11-12T01:48:32.186Z,15.70
2018-11-12T01:51:01.469Z,15.70
2018-11-12T01:53:30.758Z,15.70
2018-11-12T01:56:00.063Z,15.70
2018-11-12T01:58:29.327Z,15.70
2018-11-12T02:00:58.572Z,15.70
2018-11-12T02:03:27.836Z,15.70
2018-11-12T02:05:57.113Z,15.70
2018-11-12T02:08:26.379Z,15.70
2018-11-12T02:10:55.698Z,15.70
2018-11-12T02:13:24.975Z,15.70
2018-11-12T02:15:54.242Z,15.70
2018-11-12T02:18:23.534Z,15.70
2018-11-12T02:20:52.817Z,15.70
2018-11-12T02:23:22.292Z,15.70
2018-11-12T02:25:51.634Z,15.70
2018-11-12T02:28:20.914Z,15.70
2018-11-12T02:30:50.173Z,15.70
2018-11-12T02:33:19.596Z,15.70
2018-11-12T02:35:48.794Z,15.70
2018-11-12T02:38:18.105Z,15.70
2018-11-12T02:40:47.386Z,15.70
2018-11-12T02:43:16.663Z,15.70
2018-11-12T02:45:45.948Z,15.70
2018-11-12T02:48:15.260Z,15.70
2018-11-12T02:50:44.507Z,15.70
2018-11-12T02:53:13.768Z,15.70
2018-11-12T02:55:43.072Z,15.70
2018-11-12T02:58:12.375Z,15.70
2018-11-12T03:00:41.640Z,15.70
2018-11-12T03:03:10.916Z,15.70
2018-11-12T03:05:40.202Z,15.70
2018-11-12T03:08:09.517Z,15.70
2018-11-12T03:10:38.819Z,15.70
2018-11-12T03:13:08.081Z,15.70
2018-11-12T03:15:37.355Z,15.70
2018-11-12T03:18:06.943Z,15.70
2018-11-12T03:20:36.233Z,15.70
2018-11-12T03:23:05.571Z,15.70
2018-11-12T03:25:34.851Z,15.70
2018-11-12T03:28:04.135Z,15.70
2018-11-12T03:30:34.032Z,15.70
2018-11-12T03:33:03.327Z,15.70
2018-11-12T03:35:32.590Z,15.70
2018-11-12T03:38:01.894Z,15.70
2018-11-12T03:40:31.227Z,15.70
2018-11-12T03:43:00.527Z,15.70
2018-11-12T03:45:29.858Z,15.70
2018-11-12T03:47:59.141Z,15.70
2018-11-12T03:50:28.423Z,15.70
2018-11-12T03:52:57.720Z,15.70
2018-11-12T03:55:27.022Z,15.70
2018-11-12T03:57:56.302Z,15.70
2018-11-12T04:00:31.270Z,15.70
2018-11-12T04:03:00.489Z,15.70
2018-11-12T04:05:29.763Z,15.70
2018-11-12T04:07:59.041Z,15.70
2018-11-12T04:10:28.335Z,15.70
2018-11-12T04:12:57.610Z,15.70
2018-11-12T04:15:27.279Z,15.70
2018-11-12T04:17:56.562Z,15.70
2018-11-12T04:20:26.299Z,15.70
2018-11-12T04:23:05.452Z,15.70
2018-11-12T04:25:36.554Z,15.70
2018-11-12T04:28:06.133Z,15.70
2018-11-12T04:30:35.541Z,15.70
2018-11-12T04:33:04.995Z,15.70
2018-11-12T04:35:34.234Z,15.70
2018-11-12T04:38:03.529Z,15.70
2018-11-12T04:40:32.793Z,15.70
2018-11-12T04:43:02.083Z,15.70
2018-11-12T04:45:31.427Z,15.70
2018-11-12T04:48:00.696Z,15.70
2018-11-12T04:50:30.176Z,15.70
2018-11-12T04:52:59.461Z,15.70
2018-11-12T04:55:28.848Z,15.70
2018-11-12T04:57:58.083Z,15.70
2018-11-12T05:00:28.496Z,15.70
2018-11-12T05:02:57.882Z,15.70
2018-11-12T05:05:28.328Z,15.70
2018-11-12T05:07:57.668Z,15.70
2018-11-12T05:10:27.585Z,15.70
2018-11-12T05:12:57.288Z,15.70
2018-11-12T05:15:27.063Z,15.70
2018-11-12T05:17:56.369Z,15.70
2018-11-12T05:20:26.980Z,15.70
2018-11-12T05:22:56.979Z,15.70
2018-11-12T05:25:26.357Z,15.70
2018-11-12T05:27:55.634Z,15.70
2018-11-12T05:30:26.141Z,15.70
2018-11-12T05:32:55.644Z,15.70
2018-11-12T05:35:26.057Z,15.70
2018-11-12T05:37:55.452Z,15.70
2018-11-12T05:40:25.900Z,15.70
2018-11-12T05:42:55.271Z,15.70
2018-11-12T05:45:25.914Z,15.70
2018-11-12T05:47:55.199Z,15.70
2018-11-12T05:50:26.665Z,15.70
2018-11-12T05:52:57.428Z,15.70
2018-11-12T05:55:27.724Z,15.60
2018-11-12T05:57:57.056Z,15.70
2018-11-12T06:00:29.338Z,15.70
2018-11-12T06:02:58.749Z,15.70
2018-11-12T06:05:28.078Z,15.70
2018-11-12T06:07:57.372Z,15.70
2018-11-12T06:10:28.129Z,15.70
2018-11-12T06:12:57.411Z,15.60
2018-11-12T06:15:26.722Z,15.70
2018-11-12T06:17:56.038Z,15.60
2018-11-12T06:20:26.665Z,15.60
2018-11-12T06:22:55.942Z,15.60
2018-11-12T06:25:31.510Z,15.60
2018-11-12T06:28:01.367Z,15.60
2018-11-12T06:30:32.171Z,15.60
2018-11-12T06:33:01.505Z,15.60
2018-11-12T06:35:30.852Z,15.60
2018-11-12T06:38:00.116Z,15.60
2018-11-12T06:40:29.563Z,15.70
2018-11-12T06:42:58.862Z,15.60
2018-11-12T06:45:29.482Z,15.70
2018-11-12T06:47:59.299Z,15.70
2018-11-12T06:50:29.717Z,15.70
2018-11-12T06:52:59.280Z,15.70
2018-11-12T06:55:28.603Z,15.70
2018-11-12T06:57:58.112Z,15.70
2018-11-12T07:00:29.792Z,15.70
2018-11-12T07:02:59.152Z,15.70
2018-11-12T07:05:28.749Z,15.70
2018-11-12T07:07:58.067Z,15.70
2018-11-12T07:10:28.329Z,15.70
2018-11-12T07:12:58.353Z,15.80
2018-11-12T07:15:28.552Z,15.80
2018-11-12T07:17:57.949Z,15.80
2018-11-12T07:20:28.151Z,15.80
2018-11-12T07:22:57.411Z,15.80
2018-11-12T07:25:29.014Z,15.80
2018-11-12T07:27:58.483Z,15.80
2018-11-12T07:30:28.542Z,15.80
2018-11-12T07:32:58.875Z,15.80
2018-11-12T07:35:28.386Z,15.90
2018-11-12T07:37:58.325Z,15.90
2018-11-12T07:40:27.602Z,15.90
2018-11-12T07:42:56.874Z,16.00
2018-11-12T07:45:27.619Z,16.00
2018-11-12T07:47:57.526Z,16.00
2018-11-12T07:50:28.194Z,16.00
2018-11-12T07:52:57.473Z,16.10
2018-11-12T07:55:27.855Z,16.10
2018-11-12T07:57:57.935Z,16.10
2018-11-12T08:00:28.553Z,16.10
2018-11-12T08:03:03.186Z,16.20
2018-11-12T08:05:37.010Z,16.20
2018-11-12T08:08:06.503Z,16.20
2018-11-12T08:10:35.819Z,16.20
2018-11-12T08:13:05.482Z,16.20
2018-11-12T08:15:34.794Z,16.20
2018-11-12T08:18:04.066Z,16.30
2018-11-12T08:20:33.383Z,16.30
2018-11-12T08:23:02.811Z,16.30
2018-11-12T08:25:32.457Z,16.30
2018-11-12T08:28:01.758Z,16.30
2018-11-12T08:30:31.120Z,16.40
2018-11-12T08:33:01.270Z,16.40
2018-11-12T08:35:30.560Z,16.40
2018-11-12T08:38:00.004Z,16.40
2018-11-12T08:40:29.971Z,16.40
2018-11-12T08:42:59.240Z,16.40
2018-11-12T08:45:28.516Z,16.40
2018-11-12T08:47:58.082Z,16.40
2018-11-12T08:50:28.062Z,16.40
2018-11-12T08:52:57.975Z,16.50
2018-11-12T08:55:28.642Z,16.50
2018-11-12T08:57:59.468Z,16.50
2018-11-12T09:00:29.166Z,16.50
2018-11-12T09:02:58.457Z,16.50
2018-11-12T09:05:28.865Z,16.50
2018-11-12T09:07:59.343Z,16.50
2018-11-12T09:10:31.062Z,16.50
2018-11-12T09:13:00.324Z,16.50
2018-11-12T09:15:29.629Z,16.50
2018-11-12T09:17:59.122Z,16.50
2018-11-12T09:20:29.198Z,16.50
2018-11-12T09:22:58.571Z,16.50
2018-11-12T09:25:28.698Z,16.50
2018-11-12T09:27:58.031Z,16.40
2018-11-12T09:30:28.442Z,16.40
2018-11-12T09:32:57.769Z,16.40
2018-11-12T09:35:28.255Z,16.40
2018-11-12T09:37:58.259Z,16.40
2018-11-12T09:40:28.990Z,16.40
2018-11-12T09:42:58.294Z,16.40
2018-11-12T09:45:27.559Z,16.40
2018-11-12T09:47:56.869Z,16.40
2018-11-12T09:50:27.070Z,16.40
2018-11-12T09:52:57.351Z,16.40
2018-11-12T09:55:27.671Z,16.40
2018-11-12T09:57:58.383Z,16.40
2018-11-12T10:00:27.871Z,16.40
2018-11-12T10:02:57.963Z,16.40
2018-11-12T10:05:27.547Z,16.40
2018-11-12T10:08:00.138Z,16.40
2018-11-12T10:10:57.153Z,16.40
2018-11-12T10:13:28.858Z,16.50
2018-11-12T10:15:59.995Z,16.50
2018-11-12T10:18:26.383Z,16.50
2018-11-12T10:20:55.654Z,16.50
2018-11-12T10:23:24.943Z,16.60
2018-11-12T10:25:54.248Z,16.60
2018-11-12T10:28:24.194Z,16.60
2018-11-12T10:30:53.495Z,16.60
2018-11-12T10:33:22.747Z,16.70
2018-11-12T10:35:52.038Z,16.70
2018-11-12T10:38:21.280Z,16.70
2018-11-12T10:40:50.601Z,16.70
2018-11-12T10:43:19.933Z,16.70
2018-11-12T10:45:49.246Z,16.80
2018-11-12T10:48:18.584Z,16.80
2018-11-12T10:50:56.247Z,16.80
2018-11-12T10:53:17.442Z,16.80
2018-11-12T10:55:46.824Z,16.80
2018-11-12T10:58:16.083Z,16.80
2018-11-12T11:00:50.448Z,16.70
2018-11-12T11:03:24.737Z,16.70
2018-11-12T11:05:54.763Z,16.70
2018-11-12T11:08:24.150Z,16.70
2018-11-12T11:10:53.426Z,16.70
2018-11-12T11:13:22.771Z,16.70
2018-11-12T11:15:52.074Z,16.70
2018-11-12T11:18:38.554Z,16.70
2018-11-12T11:21:07.955Z,16.70
2018-11-12T11:23:42.969Z,16.70
2018-11-12T11:26:12.840Z,16.70
2018-11-12T11:28:42.178Z,16.70
2018-11-12T11:31:11.472Z,16.70
2018-11-12T11:33:40.798Z,16.70
2018-11-12T11:36:10.068Z,16.70
2018-11-12T11:38:39.364Z,16.70
2018-11-12T11:41:08.656Z,16.70
2018-11-12T11:43:37.931Z,16.70
2018-11-12T11:46:07.298Z,16.70
2018-11-12T11:48:36.644Z,16.70
2018-11-12T11:51:06.035Z,16.70
2018-11-12T11:53:35.325Z,16.70
2018-11-12T11:56:04.719Z,16.80
2018-11-12T11:58:33.975Z,16.80
2018-11-12T12:01:03.252Z,16.80
2018-11-12T12:03:32.556Z,16.80
2018-11-12T12:06:01.935Z,16.70
2018-11-12T12:08:31.728Z,16.70
2018-11-12T12:11:01.033Z,16.70
2018-11-12T12:13:30.331Z,16.70
2018-11-12T12:15:59.635Z,16.70
2018-11-12T12:18:28.944Z,16.70
2018-11-12T12:20:58.278Z,16.80
2018-11-12T12:23:27.585Z,16.80
2018-11-12T12:25:56.869Z,16.80
2018-11-12T12:28:26.188Z,16.80
2018-11-12T12:30:59.688Z,16.80
2018-11-12T12:33:29.009Z,16.80
2018-11-12T12:35:59.323Z,16.80
2018-11-12T12:38:29.966Z,16.80
2018-11-12T12:41:00.360Z,16.80
2018-11-12T12:43:31.372Z,16.80
2018-11-12T12:46:00.860Z,16.80
2018-11-12T12:48:30.472Z,16.80
2018-11-12T12:50:59.909Z,16.80
2018-11-12T12:53:29.183Z,16.80
2018-11-12T12:55:58.465Z,16.80
2018-11-12T12:58:27.867Z,16.70
2018-11-12T13:00:57.174Z,16.70
2018-11-12T13:03:26.487Z,16.70
2018-11-12T13:05:55.816Z,16.70
2018-11-12T13:08:25.168Z,16.70
2018-11-12T13:10:54.435Z,16.80
2018-11-12T13:13:23.672Z,16.80
2018-11-12T13:15:52.959Z,16.80
2018-11-12T13:18:22.231Z,16.80
2018-11-12T13:20:51.561Z,16.80
2018-11-12T13:23:20.842Z,16.80
2018-11-12T13:25:50.102Z,16.80
2018-11-12T13:28:19.360Z,16.80
2018-11-12T13:30:49.734Z,16.80
2018-11-12T13:33:19.082Z,16.70
2018-11-12T13:35:48.403Z,16.70
2018-11-12T13:38:17.737Z,16.70
2018-11-12T13:40:47.019Z,16.80
2018-11-12T13:43:16.363Z,16.80
2018-11-12T13:45:45.974Z,16.80
2018-11-12T13:48:15.463Z,16.90
2018-11-12T13:50:44.722Z,16.90
2018-11-12T13:53:14.501Z,16.90
2018-11-12T13:55:43.750Z,16.90
2018-11-12T13:58:13.500Z,16.90
2018-11-12T14:00:42.819Z,16.90
2018-11-12T14:03:12.094Z,16.90
2018-11-12T14:05:41.924Z,16.90
2018-11-12T14:08:11.244Z,16.90
2018-11-12T14:10:40.544Z,16.90
2018-11-12T14:13:09.896Z,16.90
2018-11-12T14:15:39.227Z,16.90
2018-11-12T14:18:08.763Z,16.90
2018-11-12T14:20:38.268Z,16.90
2018-11-12T14:23:07.487Z,16.90
2018-11-12T14:25:36.840Z,16.90
2018-11-12T14:28:06.709Z,16.90
2018-11-12T14:30:36.239Z,16.90
2018-11-12T14:33:05.751Z,16.90
2018-11-12T14:35:35.129Z,16.90
2018-11-12T14:38:04.698Z,16.90
2018-11-12T14:40:34.576Z,16.90
2018-11-12T14:43:04.319Z,16.90
2018-11-12T14:45:34.279Z,16.80
2018-11-12T14:48:03.905Z,16.90
2018-11-12T14:50:33.615Z,16.90
2018-11-12T14:53:03.122Z,16.90
2018-11-12T14:55:32.672Z,16.90
2018-11-12T14:58:02.011Z,16.90
2018-11-12T15:00:31.278Z,16.80
2018-11-12T15:03:00.618Z,16.80
2018-11-12T15:05:30.065Z,16.80
2018-11-12T15:07:59.399Z,16.80
2018-11-12T15:10:28.700Z,16.80
2018-11-12T15:12:58.007Z,16.80
2018-11-12T15:15:27.407Z,16.80
2018-11-12T15:17:56.755Z,16.80
2018-11-12T15:20:26.171Z,16.80
2018-11-12T15:22:55.676Z,16.80
2018-11-12T15:25:26.235Z,16.80
2018-11-12T15:27:55.993Z,16.80
2018-11-12T15:30:26.431Z,16.80
2018-11-12T15:32:56.703Z,16.70
2018-11-12T15:35:27.685Z,16.70
2018-11-12T15:37:57.555Z,16.70
2018-11-12T15:40:27.491Z,16.70
2018-11-12T15:42:58.071Z,16.70
2018-11-12T15:45:28.105Z,16.70
2018-11-12T15:47:58.058Z,16.70
2018-11-12T15:50:33.759Z,16.70
2018-11-12T15:53:03.791Z,16.60
2018-11-12T15:55:33.893Z,16.70
2018-11-12T15:58:03.956Z,16.70
2018-11-12T16:00:34.032Z,16.60
2018-11-12T16:03:04.065Z,16.60
2018-11-12T16:05:34.051Z,16.60
2018-11-12T16:08:04.038Z,16.60
2018-11-12T16:10:34.011Z,16.60
2018-11-12T16:13:04.066Z,16.60
2018-11-12T16:15:34.321Z,16.60
2018-11-12T16:18:04.397Z,16.60
2018-11-12T16:20:34.480Z,16.60
2018-11-12T16:23:04.675Z,16.60
2018-11-12T16:25:34.763Z,16.50
2018-11-12T16:28:04.872Z,16.50
2018-11-12T16:30:34.985Z,16.50
2018-11-12T16:33:05.064Z,16.50
2018-11-12T16:35:35.142Z,16.50
2018-11-12T16:38:05.171Z,16.50
2018-11-12T16:40:35.259Z,16.50
2018-11-12T16:43:05.323Z,16.50
2018-11-12T16:45:35.415Z,16.50
2018-11-12T16:48:05.482Z,16.40
2018-11-12T16:50:36.004Z,16.40
2018-11-12T16:53:06.490Z,16.40
2018-11-12T16:55:37.556Z,16.40
2018-11-12T16:58:07.622Z,16.40
2018-11-12T17:00:37.771Z,16.40
2018-11-12T17:03:11.791Z,16.40
2018-11-12T17:05:41.879Z,16.40
2018-11-12T17:08:11.960Z,16.40
2018-11-12T17:10:42.060Z,16.40
2018-11-12T17:13:12.199Z,16.40
2018-11-12T17:15:42.297Z,16.40
2018-11-12T17:18:12.631Z,16.40
2018-11-12T17:20:42.699Z,16.40
2018-11-12T17:23:12.929Z,16.40
2018-11-12T17:25:43.091Z,16.40
2018-11-12T17:28:13.258Z,16.40
2018-11-12T17:30:44.923Z,16.40
2018-11-12T17:33:15.535Z,16.30
2018-11-12T17:51:15.683Z,16.30
2018-11-12T17:53:46.694Z,16.30
2018-11-12T17:56:17.595Z,16.30
2018-11-12T17:58:47.697Z,16.30
2018-11-12T18:01:17.912Z,16.20
2018-11-12T18:03:47.996Z,16.20
2018-11-12T18:06:19.067Z,16.20
2018-11-12T18:08:49.191Z,16.20
2018-11-12T18:11:19.290Z,16.20
2018-11-12T18:13:49.455Z,16.20
2018-11-12T18:16:19.517Z,16.20
2018-11-12T18:18:49.630Z,16.20
2018-11-12T18:21:19.757Z,16.20
2018-11-12T18:23:49.830Z,16.20
2018-11-12T18:26:19.960Z,16.20
2018-11-12T18:28:50.091Z,16.20
2018-11-12T18:31:20.405Z,16.20
2018-11-12T18:33:50.432Z,16.20
2018-11-12T18:36:20.522Z,16.20
2018-11-12T18:38:50.671Z,16.20
2018-11-12T18:41:20.813Z,16.20
2018-11-12T18:43:51.907Z,16.20
2018-11-12T18:46:22.203Z,16.20
2018-11-12T18:48:52.284Z,16.20
2018-11-12T18:51:22.490Z,16.20
2018-11-12T18:53:53.556Z,16.20
2018-11-12T18:56:24.748Z,16.20
2018-11-12T18:58:55.840Z,16.20
2018-11-12T19:01:26.034Z,16.20
2018-11-12T19:03:56.167Z,16.20
2018-11-12T19:06:28.344Z,16.20
2018-11-12T19:08:59.518Z,16.20
2018-11-12T19:11:29.854Z,16.20
2018-11-12T19:14:00.017Z,16.20
2018-11-12T19:16:31.797Z,16.20
2018-11-12T19:19:03.067Z,16.20
2018-11-12T19:21:33.548Z,16.10
2018-11-12T19:24:05.478Z,16.10
2018-11-12T19:26:37.189Z,16.10
2018-11-12T19:29:07.936Z,16.10
2018-11-12T19:31:38.060Z,16.20
2018-11-12T19:34:09.182Z,16.20
2018-11-12T19:36:39.314Z,16.20
2018-11-12T19:39:10.627Z,16.20
2018-11-12T19:41:41.360Z,16.20
2018-11-12T19:44:11.483Z,16.20
2018-11-12T19:46:41.670Z,16.20
2018-11-12T19:49:11.817Z,16.20
2018-11-12T19:51:42.394Z,16.20
2018-11-12T19:54:16.235Z,16.20
2018-11-12T19:56:46.328Z,16.20
2018-11-12T19:59:16.559Z,16.20
2018-11-12T20:01:46.698Z,16.20
2018-11-12T20:04:16.808Z,16.20
2018-11-12T20:06:47.006Z,16.10
2018-11-12T20:09:17.148Z,16.10
2018-11-12T20:11:47.302Z,16.20
2018-11-12T20:14:18.318Z,16.10
2018-11-12T20:16:48.427Z,16.10
2018-11-12T20:19:18.599Z,16.10
2018-11-12T20:21:48.704Z,16.10
2018-11-12T20:24:18.844Z,16.10
2018-11-12T20:26:48.944Z,16.10
2018-11-12T20:29:19.108Z,16.10
2018-11-12T20:31:49.256Z,16.10
2018-11-12T20:34:19.442Z,16.10
2018-11-12T20:36:49.597Z,16.10
2018-11-12T20:39:20.245Z,16.10
2018-11-12T20:41:50.352Z,16.10
2018-11-12T20:44:20.471Z,16.10
2018-11-12T20:46:50.604Z,16.10
2018-11-12T20:49:20.991Z,16.10
2018-11-12T20:51:51.187Z,16.10
2018-11-12T20:54:21.311Z,16.10
2018-11-12T20:56:51.428Z,16.10
2018-11-12T20:59:21.612Z,16.10
2018-11-12T21:01:52.746Z,16.10
2018-11-12T21:04:22.852Z,16.10
2018-11-12T21:06:53.826Z,16.10
2018-11-12T21:09:24.009Z,16.10
2018-11-12T21:11:54.079Z,16.10
2018-11-12T21:14:24.212Z,16.10
2018-11-12T21:16:54.272Z,16.10
2018-11-12T21:19:24.469Z,16.10
2018-11-12T21:21:54.501Z,16.10
2018-11-12T21:24:24.617Z,16.10
2018-11-12T21:26:54.688Z,16.10
2018-11-12T21:29:24.769Z,16.00
2018-11-12T21:31:54.821Z,16.00
2018-11-12T21:34:24.850Z,16.00
2018-11-12T21:36:54.949Z,16.00
2018-11-12T21:39:25.017Z,16.00
2018-11-12T21:41:55.090Z,16.00
2018-11-12T21:44:25.157Z,16.00
2018-11-12T21:46:55.205Z,16.00
2018-11-12T21:49:25.301Z,16.00
2018-11-12T21:51:55.372Z,16.00
2018-11-12T21:54:25.399Z,16.00
2018-11-12T21:56:55.455Z,16.00
2018-11-12T21:59:25.518Z,16.00
2018-11-12T22:01:55.514Z,16.00
2018-11-12T22:04:26.097Z,16.00
2018-11-12T22:06:56.137Z,16.00
2018-11-12T22:09:26.130Z,16.00
2018-11-12T22:11:56.100Z,16.00
2018-11-12T22:14:26.033Z,16.00
2018-11-12T22:16:56.315Z,16.00
2018-11-12T22:19:27.358Z,16.00
2018-11-12T22:21:57.273Z,16.00
2018-11-12T22:24:27.161Z,16.00
2018-11-12T22:26:56.877Z,16.00
2018-11-12T22:29:26.281Z,16.00
2018-11-12T22:31:55.531Z,16.00
2018-11-12T22:34:24.875Z,16.00
2018-11-12T22:36:54.207Z,16.00
2018-11-12T22:39:23.474Z,16.00
2018-11-12T22:41:52.760Z,16.00
2018-11-12T22:44:22.034Z,16.00
2018-11-12T22:46:51.286Z,16.00
2018-11-12T22:49:20.547Z,16.00
2018-11-12T22:51:49.831Z,16.00
2018-11-12T22:54:19.148Z,16.00
2018-11-12T22:56:48.447Z,16.00
2018-11-12T22:59:17.784Z,16.00
2018-11-12T23:01:47.063Z,15.90
2018-11-12T23:04:16.421Z,15.90
2018-11-12T23:06:45.726Z,15.90
2018-11-12T23:09:16.980Z,15.90
2018-11-12T23:11:46.326Z,15.90
2018-11-12T23:14:16.429Z,15.80
2018-11-12T23:16:45.709Z,15.80
2018-11-12T23:19:14.975Z,15.80
2018-11-12T23:21:44.315Z,15.80
2018-11-12T23:24:13.649Z,15.80
2018-11-12T23:26:42.999Z,15.80
2018-11-12T23:29:12.317Z,15.70
2018-11-12T23:31:41.583Z,15.70
2018-11-12T23:34:10.874Z,15.70
2018-11-12T23:36:40.166Z,15.70
2018-11-12T23:39:09.528Z,15.70
2018-11-12T23:41:38.807Z,15.70
2018-11-12T23:44:08.211Z,15.60
2018-11-12T23:46:37.504Z,15.60
2018-11-12T23:49:06.877Z,15.60
2018-11-12T23:51:36.681Z,15.60
2018-11-12T23:54:07.348Z,15.60
2018-11-12T23:56:37.022Z,15.60
2018-11-12T23:59:06.423Z,15.60
